Time;durP1;ratioP1;P1;durP2;ratioP2;P2;SDS_P1;SDS_P2;PMS_P1;PMS_P2;Temp;Humidity;BMP_temperature;BMP_pressure;BME280_temperature;BME280_humidity;BME280_pressure;Samples;Min_cycle;Max_cycle;Signal;HPM_P1;HPM_P2
2022/09/01 00:01:17;;;;;;;8.27;1.83;;;14.50;99.90;;;;;;4936903;28;209702;-71
2022/09/01 00:03:47;;;;;;;8.13;2.00;;;14.50;99.90;;;;;;4984950;28;20572;-70
2022/09/01 00:06:21;;;;;;;7.25;1.88;;;14.50;99.90;;;;;;4916709;28;211186;-70
2022/09/01 00:08:55;;;;;;;7.18;1.83;;;14.50;99.90;;;;;;4988453;28;20050;-70
2022/09/01 00:11:23;;;;;;;8.80;1.90;;;14.50;99.90;;;;;;4934169;28;209962;-70
2022/09/01 00:13:52;;;;;;;7.95;1.98;;;14.40;99.90;;;;;;4982158;28;20058;-70
2022/09/01 00:16:19;;;;;;;7.60;1.73;;;14.40;99.90;;;;;;4947381;28;203926;-70
2022/09/01 00:18:49;;;;;;;8.18;1.85;;;14.40;99.90;;;;;;4984672;28;20512;-70
2022/09/01 00:21:18;;;;;;;7.07;2.00;;;14.40;99.90;;;;;;4921158;28;211680;-70
2022/09/01 00:23:45;;;;;;;7.82;2.03;;;14.30;99.90;;;;;;4966424;28;20054;-70
2022/09/01 00:26:11;;;;;;;7.55;1.80;;;14.30;99.90;;;;;;4926900;28;220648;-70
2022/09/01 00:28:38;;;;;;;7.13;1.80;;;14.30;99.90;;;;;;4962176;28;20058;-69
2022/09/01 00:31:06;;;;;;;6.65;1.75;;;14.30;99.90;;;;;;4924222;28;194738;-69
2022/09/01 00:33:34;;;;;;;7.10;1.73;;;14.30;99.90;;;;;;4968857;28;20050;-69
2022/09/01 00:36:01;;;;;;;8.00;1.60;;;14.20;99.90;;;;;;4929350;28;209937;-70
2022/09/01 00:38:27;;;;;;;8.80;1.77;;;14.20;99.90;;;;;;4964816;28;20512;-70
2022/09/01 00:40:54;;;;;;;6.78;1.70;;;14.20;99.90;;;;;;4921229;28;225695;-70
2022/09/01 00:43:40;;;;;;;6.93;1.70;;;14.20;99.90;;;;;;4955322;28;20047;-71
2022/09/01 00:46:21;;;;;;;7.35;1.65;;;14.20;99.90;;;;;;4922133;28;217083;-70
2022/09/01 00:48:59;;;;;;;8.05;1.55;;;14.10;99.90;;;;;;4967694;28;20031;-70
2022/09/01 00:51:27;;;;;;;7.28;1.48;;;14.10;99.90;;;;;;4917745;28;209248;-71
2022/09/01 00:53:54;;;;;;;6.90;1.55;;;14.10;99.90;;;;;;4963330;28;20055;-70
2022/09/01 00:56:22;;;;;;;6.13;1.50;;;14.10;99.90;;;;;;4919838;28;215565;-70
2022/09/01 00:58:50;;;;;;;6.93;1.73;;;14.10;99.90;;;;;;4963270;28;20043;-70
2022/09/01 01:01:16;;;;;;;7.93;1.73;;;14.00;99.90;;;;;;4923007;28;209999;-71
2022/09/01 01:03:45;;;;;;;7.45;1.70;;;14.00;99.90;;;;;;4955510;28;20062;-69
2022/09/01 01:06:15;;;;;;;7.90;1.40;;;14.00;99.90;;;;;;4915770;28;207169;-70
2022/09/01 01:08:57;;;;;;;6.15;1.55;;;14.00;99.90;;;;;;4966452;28;20058;-70
2022/09/01 01:11:26;;;;;;;5.38;1.55;;;14.00;99.90;;;;;;4926546;28;206385;-70
2022/09/01 01:13:57;;;;;;;6.50;1.60;;;13.90;99.90;;;;;;4959450;28;20055;-71
2022/09/01 01:16:26;;;;;;;7.60;1.60;;;13.90;99.90;;;;;;4920715;28;213422;-71
2022/09/01 01:18:53;;;;;;;8.40;1.52;;;13.90;99.90;;;;;;4962899;28;20534;-71
2022/09/01 01:24:23;;;;;;;4.85;1.30;;;13.80;99.90;;;;;;4958830;28;20065;-71
2022/09/01 01:26:50;;;;;;;6.18;1.63;;;13.80;99.90;;;;;;4908310;28;216207;-70
2022/09/01 01:29:17;;;;;;;7.40;1.50;;;13.80;99.90;;;;;;4961890;28;20699;-71
2022/09/01 01:31:46;;;;;;;6.35;1.73;;;13.80;99.90;;;;;;4911503;28;207055;-69
2022/09/01 01:34:13;;;;;;;8.20;1.73;;;13.70;99.90;;;;;;4964452;28;20079;-69
2022/09/01 01:36:40;;;;;;;5.10;1.27;;;13.70;99.90;;;;;;4919142;28;215591;-70
2022/09/01 01:39:18;;;;;;;5.63;1.50;;;13.70;99.90;;;;;;4957277;28;20079;-70
2022/09/01 01:41:47;;;;;;;5.63;1.48;;;13.70;99.90;;;;;;4922038;28;210410;-70
2022/09/01 01:44:21;;;;;;;6.10;1.60;;;13.60;99.90;;;;;;4960405;28;20512;-70
2022/09/01 01:46:53;;;;;;;6.55;1.48;;;13.60;99.90;;;;;;4932896;28;207833;-71
2022/09/01 01:49:22;;;;;;;5.32;1.38;;;13.60;99.90;;;;;;4956781;28;20051;-70
2022/09/01 01:51:52;;;;;;;5.35;1.30;;;13.50;99.90;;;;;;4941212;28;206222;-69
2022/09/01 01:54:18;;;;;;;8.55;1.63;;;13.50;99.90;;;;;;4987514;28;20042;-71
2022/09/01 01:56:45;;;;;;;5.72;1.42;;;13.50;99.90;;;;;;4929438;28;207553;-70
2022/09/01 01:59:13;;;;;;;5.53;1.70;;;13.50;99.90;;;;;;4979489;28;20050;-69
2022/09/01 02:01:41;;;;;;;6.45;1.50;;;13.50;99.90;;;;;;4937190;28;208260;-71
2022/09/01 02:04:10;;;;;;;5.88;1.70;;;13.50;99.90;;;;;;4978486;28;20065;-69
2022/09/01 02:06:40;;;;;;;6.75;1.85;;;13.50;99.90;;;;;;4937425;28;210238;-69
2022/09/01 02:09:07;;;;;;;9.43;1.52;;;13.40;99.90;;;;;;4977653;28;20553;-70
2022/09/01 02:11:36;;;;;;;5.55;1.50;;;13.40;99.90;;;;;;4951481;28;213229;-70
2022/09/01 02:14:06;;;;;;;6.15;1.42;;;13.40;99.90;;;;;;4979380;28;20065;-70
2022/09/01 02:16:33;;;;;;;7.25;1.70;;;13.40;99.90;;;;;;4937862;28;213935;-70
2022/09/01 02:19:01;;;;;;;5.32;1.50;;;13.30;99.90;;;;;;4982824;28;20534;-70
2022/09/01 02:21:27;;;;;;;6.35;1.50;;;13.30;99.90;;;;;;4954801;28;209131;-70
2022/09/01 02:24:00;;;;;;;7.00;1.70;;;13.30;99.90;;;;;;4988204;28;20078;-69
2022/09/01 02:26:30;;;;;;;6.50;1.65;;;13.30;99.90;;;;;;4919791;28;210348;-70
2022/09/01 02:29:03;;;;;;;6.07;1.65;;;13.20;99.90;;;;;;4979300;28;20049;-69
2022/09/01 02:31:34;;;;;;;5.85;1.65;;;13.20;99.90;;;;;;4935997;28;205994;-70
2022/09/01 02:34:02;;;;;;;5.40;1.25;;;13.20;99.90;;;;;;4983505;28;20423;-70
2022/09/01 02:36:31;;;;;;;6.15;1.50;;;13.20;99.90;;;;;;4934194;28;214537;-70
2022/09/01 02:38:57;;;;;;;9.30;1.60;;;13.20;99.90;;;;;;4977776;28;20066;-70
2022/09/01 02:41:27;;;;;;;7.07;1.63;;;13.10;99.90;;;;;;4947448;28;226425;-70
2022/09/01 02:43:54;;;;;;;8.20;1.70;;;13.10;99.90;;;;;;4980165;28;20058;-71
2022/09/01 02:46:22;;;;;;;6.70;1.65;;;13.10;99.90;;;;;;4930444;28;206070;-70
2022/09/01 02:48:50;;;;;;;6.40;1.42;;;13.10;99.90;;;;;;4977011;28;20058;-70
2022/09/01 02:51:18;;;;;;;6.78;1.73;;;13.10;99.90;;;;;;4930609;28;210087;-70
2022/09/01 02:53:51;;;;;;;5.93;1.58;;;13.10;99.90;;;;;;4973225;28;20069;-71
2022/09/01 02:56:21;;;;;;;7.75;1.60;;;13.10;99.90;;;;;;4943442;28;210752;-70
2022/09/01 02:58:48;;;;;;;9.30;1.70;;;13.10;99.90;;;;;;4988247;28;20054;-71
2022/09/01 03:01:24;;;;;;;6.55;1.55;;;13.10;99.90;;;;;;4945483;28;209640;-71
2022/09/01 03:03:54;;;;;;;6.85;1.83;;;13.10;99.90;;;;;;4975660;28;20055;-71
2022/09/01 03:06:22;;;;;;;9.23;1.80;;;13.10;99.90;;;;;;4940088;28;209065;-71
2022/09/01 03:08:51;;;;;;;7.20;1.65;;;13.10;99.90;;;;;;4980205;28;20050;-68
2022/09/01 03:11:17;;;;;;;7.32;1.73;;;13.10;99.90;;;;;;4937270;28;213254;-71
2022/09/01 03:13:44;;;;;;;7.53;1.63;;;13.10;99.90;;;;;;4976720;28;20054;-70
2022/09/01 03:16:10;;;;;;;5.90;1.50;;;13.10;99.90;;;;;;4931527;28;210008;-70
2022/09/01 03:18:37;;;;;;;7.28;1.63;;;13.10;99.90;;;;;;4983061;28;20057;-70
2022/09/01 03:21:05;;;;;;;6.95;1.75;;;13.10;99.90;;;;;;4941843;28;216394;-71
2022/09/01 03:23:32;;;;;;;6.30;1.60;;;13.10;99.90;;;;;;4987948;28;20046;-70
2022/09/01 03:26:00;;;;;;;8.55;1.73;;;13.20;99.90;;;;;;4945538;28;210094;-71
2022/09/01 03:28:26;;;;;;;6.05;1.70;;;13.20;99.90;;;;;;4978616;28;20058;-69
2022/09/01 03:30:56;;;;;;;6.45;1.80;;;13.20;99.90;;;;;;4952430;28;207486;-70
2022/09/01 03:33:24;;;;;;;9.68;1.73;;;13.20;99.90;;;;;;4979842;28;20058;-70
2022/09/01 03:35:50;;;;;;;8.10;2.00;;;13.20;99.90;;;;;;4932815;28;206588;-70
2022/09/01 03:38:21;;;;;;;7.90;1.95;;;13.20;99.90;;;;;;4975714;28;20050;-70
2022/09/01 03:41:00;;;;;;;5.93;1.75;;;13.10;99.90;;;;;;4937864;28;212530;-70
2022/09/01 03:43:28;;;;;;;5.53;1.60;;;13.10;99.90;;;;;;4973502;28;20058;-70
2022/09/01 03:45:59;;;;;;;12.30;1.90;;;13.10;99.90;;;;;;4942374;28;213884;-70
2022/09/01 03:48:27;;;;;;;6.45;1.60;;;13.10;99.90;;;;;;4987066;28;20038;-70
2022/09/01 03:51:00;;;;;;;6.50;1.65;;;13.00;99.90;;;;;;4939695;28;210075;-70
2022/09/01 03:53:27;;;;;;;6.50;1.50;;;13.00;99.90;;;;;;4987707;28;20426;-70
2022/09/01 03:55:54;;;;;;;6.35;1.77;;;12.90;99.90;;;;;;4954934;28;210316;-70
2022/09/01 03:58:20;;;;;;;7.50;1.70;;;13.00;99.90;;;;;;4980363;28;20609;-70
2022/09/01 04:00:54;;;;;;;7.15;1.70;;;12.90;99.90;;;;;;4932640;28;213372;-70
2022/09/01 04:03:22;;;;;;;7.47;1.90;;;12.90;99.90;;;;;;4966836;28;20042;-69
2022/09/01 04:05:50;;;;;;;7.20;1.88;;;12.90;99.90;;;;;;4919318;28;206935;-68
2022/09/01 04:08:19;;;;;;;9.13;1.92;;;12.90;99.90;;;;;;4963559;28;20066;-69
2022/09/01 04:10:49;;;;;;;6.68;1.85;;;12.80;99.90;;;;;;4917003;28;219789;-69
2022/09/01 04:13:25;;;;;;;6.30;1.60;;;12.80;99.90;;;;;;4963166;28;20085;-69
2022/09/01 04:15:53;;;;;;;7.32;1.73;;;12.80;99.90;;;;;;4921517;28;210800;-70
2022/09/01 04:18:19;;;;;;;6.93;1.85;;;12.80;99.90;;;;;;4965904;28;20061;-70
2022/09/01 04:20:51;;;;;;;7.68;1.80;;;12.80;99.90;;;;;;4926098;28;209476;-70
2022/09/01 04:23:20;;;;;;;6.25;1.90;;;12.80;99.90;;;;;;4974072;28;20053;-70
2022/09/01 04:25:49;;;;;;;5.97;1.70;;;12.80;99.90;;;;;;4938829;28;207857;-69
2022/09/01 04:28:21;;;;;;;6.60;1.90;;;12.70;99.90;;;;;;4978504;28;20055;-69
2022/09/01 04:30:54;;;;;;;6.50;1.90;;;12.70;99.90;;;;;;4938576;28;219091;-69
2022/09/01 04:33:23;;;;;;;6.90;1.90;;;12.70;99.90;;;;;;4972113;28;20062;-69
2022/09/01 04:35:50;;;;;;;6.97;1.90;;;12.70;99.90;;;;;;4939051;28;210622;-69
2022/09/01 04:38:17;;;;;;;7.25;2.00;;;12.70;99.90;;;;;;4972514;28;20515;-69
2022/09/01 04:40:43;;;;;;;7.63;1.85;;;12.70;99.90;;;;;;4950667;28;210287;-69
2022/09/01 04:43:10;;;;;;;7.43;2.25;;;12.80;99.90;;;;;;4981852;28;20065;-69
2022/09/01 04:45:36;;;;;;;6.38;1.80;;;12.70;99.90;;;;;;4956580;28;200750;-69
2022/09/01 04:48:04;;;;;;;7.72;1.80;;;12.70;99.90;;;;;;4987096;28;20058;-69
2022/09/01 04:50:31;;;;;;;6.15;1.73;;;12.70;99.90;;;;;;4938372;28;219855;-69
2022/09/01 04:53:01;;;;;;;7.30;1.80;;;12.80;99.90;;;;;;4995729;28;20066;-69
2022/09/01 04:55:29;;;;;;;9.38;1.85;;;12.70;99.90;;;;;;4937613;28;210959;-69
2022/09/01 04:57:57;;;;;;;6.57;1.90;;;12.80;99.90;;;;;;4982890;28;20523;-69
2022/09/01 05:00:26;;;;;;;6.25;1.90;;;12.80;99.90;;;;;;4937233;28;218255;-69
2022/09/01 05:03:03;;;;;;;6.25;2.00;;;12.80;99.90;;;;;;4967562;28;20061;-68
2022/09/01 05:05:41;;;;;;;7.35;2.00;;;12.80;99.90;;;;;;4934349;28;212755;-69
2022/09/01 05:08:14;;;;;;;7.00;1.90;;;12.80;99.90;;;;;;4980963;28;20057;-70
2022/09/01 05:10:48;;;;;;;6.15;1.90;;;12.80;99.90;;;;;;4946734;28;213542;-69
2022/09/01 05:13:16;;;;;;;9.57;2.15;;;12.90;99.90;;;;;;4979760;28;20069;-69
2022/09/01 05:15:47;;;;;;;6.72;2.10;;;12.90;99.90;;;;;;4936318;28;211662;-69
2022/09/01 05:18:24;;;;;;;6.80;2.05;;;12.90;99.90;;;;;;4980623;28;20062;-69
2022/09/01 05:20:51;;;;;;;5.85;1.80;;;12.90;99.90;;;;;;4931615;28;206207;-69
2022/09/01 05:23:18;;;;;;;6.00;1.80;;;12.90;99.90;;;;;;4981084;28;20092;-69
2022/09/01 05:25:48;;;;;;;7.28;2.28;;;12.90;99.90;;;;;;4934791;28;223887;-68
2022/09/01 05:28:18;;;;;;;6.05;1.92;;;12.90;99.90;;;;;;4982655;28;20062;-69
2022/09/01 05:30:46;;;;;;;7.77;2.00;;;12.90;99.90;;;;;;4947549;28;214107;-69
2022/09/01 05:33:15;;;;;;;8.15;2.10;;;12.90;99.90;;;;;;4981075;28;20066;-69
2022/09/01 05:35:50;;;;;;;6.75;2.00;;;13.00;99.90;;;;;;4944042;28;218883;-68
2022/09/01 05:38:17;;;;;;;6.57;2.00;;;12.90;99.90;;;;;;4976022;28;20063;-70
2022/09/01 05:40:43;;;;;;;8.20;2.17;;;13.00;99.90;;;;;;4945677;28;207278;-69
2022/09/01 05:43:12;;;;;;;8.98;2.42;;;13.00;99.90;;;;;;4976740;28;20061;-70
2022/09/01 05:45:42;;;;;;;6.53;1.90;;;13.00;99.90;;;;;;4938839;28;206374;-69
2022/09/01 05:48:13;;;;;;;6.10;1.73;;;13.10;99.90;;;;;;4977265;28;20065;-69
2022/09/01 05:50:42;;;;;;;;;;;13.10;99.90;;;;;;4952766;28;212215;-68
2022/09/01 05:53:14;;;;;;;7.07;2.00;;;13.10;99.90;;;;;;4980180;28;19943;-69
2022/09/01 05:55:46;;;;;;;6.55;1.95;;;13.10;99.90;;;;;;4935056;28;213346;-68
2022/09/01 05:58:15;;;;;;;9.75;1.95;;;13.20;99.90;;;;;;4967410;28;20050;-69
2022/09/01 06:00:43;;;;;;;6.63;2.00;;;13.20;99.90;;;;;;4939938;28;211664;-70
2022/09/01 06:03:10;;;;;;;7.75;2.15;;;13.30;99.90;;;;;;4978733;28;21084;-70
2022/09/01 06:05:37;;;;;;;7.22;2.30;;;13.30;99.90;;;;;;4930991;28;211106;-70
2022/09/01 06:08:04;;;;;;;6.65;2.00;;;13.40;99.90;;;;;;4971909;28;20065;-70
2022/09/01 06:10:32;;;;;;;7.22;2.05;;;13.40;99.90;;;;;;4931260;28;209703;-69
2022/09/01 06:13:01;;;;;;;8.90;2.30;;;13.50;99.90;;;;;;4981126;28;21958;-69
2022/09/01 06:15:31;;;;;;;7.22;2.00;;;13.60;99.90;;;;;;4933772;28;204668;-68
2022/09/01 06:17:59;;;;;;;6.60;2.13;;;13.60;99.90;;;;;;4983048;28;20057;-69
2022/09/01 06:20:26;;;;;;;6.32;1.92;;;13.70;99.90;;;;;;4940911;28;152087;-70
2022/09/01 06:22:52;;;;;;;7.10;1.85;;;13.80;99.90;;;;;;4970308;28;20054;-69
2022/09/01 06:25:20;;;;;;;6.57;1.88;;;13.90;99.90;;;;;;4938739;28;206861;-69
2022/09/01 06:27:46;;;;;;;6.72;1.92;;;13.90;99.90;;;;;;4988988;28;20058;-70
2022/09/01 06:30:19;;;;;;;8.07;1.93;;;14.30;99.90;;;;;;4928882;28;219852;-69
2022/09/01 06:32:45;;;;;;;7.88;1.95;;;14.40;99.90;;;;;;4984101;28;20050;-70
2022/09/01 06:35:14;;;;;;;7.40;2.10;;;14.60;99.90;;;;;;4935283;28;207491;-70
2022/09/01 06:37:42;;;;;;;7.93;1.98;;;14.70;99.90;;;;;;4982088;28;20050;-70
2022/09/01 06:40:16;;;;;;;6.47;1.88;;;14.90;99.90;;;;;;4934068;28;223141;-69
2022/09/01 06:42:46;;;;;;;5.90;1.70;;;15.00;99.90;;;;;;4981351;28;20061;-69
2022/09/01 06:45:16;;;;;;;6.75;1.70;;;15.50;99.90;;;;;;4933808;28;210080;-71
2022/09/01 06:47:43;;;;;;;5.85;1.50;;;16.10;99.90;;;;;;4982421;28;20050;-70
2022/09/01 06:50:13;;;;;;;8.47;1.60;;;16.70;99.90;;;;;;4934255;28;214946;-70
2022/09/01 06:52:43;;;;;;;8.75;1.70;;;17.20;99.90;;;;;;4989294;28;20408;-71
2022/09/01 06:55:11;;;;;;;5.20;1.52;;;17.70;99.90;;;;;;4939240;28;208271;-70
2022/09/01 06:57:39;;;;;;;5.90;1.60;;;18.10;99.90;;;;;;4983370;28;20049;-71
2022/09/01 07:00:16;;;;;;;6.50;1.50;;;18.20;99.90;;;;;;4935013;28;224212;-70
2022/09/01 07:02:52;;;;;;;8.13;1.65;;;18.60;99.90;;;;;;4986752;28;20057;-70
2022/09/01 07:05:18;;;;;;;5.63;1.45;;;19.00;99.90;;;;;;4942239;28;216273;-70
2022/09/01 07:07:54;;;;;;;5.85;1.50;;;19.30;99.90;;;;;;4996486;28;20057;-70
2022/09/01 07:10:22;;;;;;;5.60;1.30;;;19.60;99.90;;;;;;4947912;28;209512;-70
2022/09/01 07:12:54;;;;;;;7.97;1.80;;;19.90;99.90;;;;;;4999831;28;20057;-71
2022/09/01 07:15:21;;;;;;;6.78;1.60;;;20.20;99.90;;;;;;4912503;28;213198;-71
2022/09/01 07:17:54;;;;;;;6.18;1.48;;;20.50;99.90;;;;;;4981699;28;20050;-70
2022/09/01 07:20:23;;;;;;;4.63;1.40;;;20.80;99.90;;;;;;4933852;28;206613;-71
2022/09/01 07:22:51;;;;;;;9.10;1.70;;;20.90;99.70;;;;;;4966552;28;20692;-71
2022/09/01 07:25:19;;;;;;;6.55;1.55;;;21.10;99.30;;;;;;4938526;28;205654;-71
2022/09/01 07:27:49;;;;;;;6.03;1.55;;;21.40;99.00;;;;;;5007047;28;20050;-71
2022/09/01 07:30:17;;;;;;;6.55;1.63;;;21.70;98.60;;;;;;4938103;28;210411;-71
2022/09/01 07:32:45;;;;;;;6.22;1.52;;;21.90;98.40;;;;;;4981225;28;20440;-72
2022/09/01 07:35:12;;;;;;;5.10;1.40;;;22.00;97.80;;;;;;4942725;28;220149;-72
2022/09/01 07:37:38;;;;;;;7.57;1.67;;;22.30;97.50;;;;;;4997638;28;20046;-72
2022/09/01 07:40:06;;;;;;;7.30;1.50;;;22.50;97.00;;;;;;4941177;28;221000;-72
2022/09/01 07:42:33;;;;;;;6.25;1.48;;;22.60;96.60;;;;;;4981922;28;20042;-72
2022/09/01 07:44:59;;;;;;;10.90;1.42;;;22.80;96.30;;;;;;4931944;28;210054;-71
2022/09/01 07:47:28;;;;;;;5.72;1.42;;;23.00;95.80;;;;;;4986008;28;20066;-71
2022/09/01 07:49:55;;;;;;;5.28;1.45;;;23.00;95.30;;;;;;4962158;28;219994;-71
2022/09/01 07:52:21;;;;;;;7.50;1.40;;;23.00;95.00;;;;;;4938244;28;208968;-71
2022/09/01 07:54:47;;;;;;;5.50;1.27;;;23.20;94.80;;;;;;4983331;28;20084;-70
2022/09/01 07:57:14;;;;;;;7.82;1.60;;;23.30;94.60;;;;;;4936268;28;212095;-73
2022/09/01 07:59:41;;;;;;;6.28;1.30;;;23.60;94.50;;;;;;4973595;28;20051;-73
2022/09/01 08:02:09;;;;;;;6.53;1.50;;;23.90;94.40;;;;;;4954079;28;209907;-73
2022/09/01 08:04:38;;;;;;;6.72;1.35;;;24.20;93.70;;;;;;4997705;28;20425;-73
2022/09/01 08:07:04;;;;;;;7.87;1.47;;;24.50;93.40;;;;;;4938211;28;213623;-73
2022/09/01 08:09:31;;;;;;;7.72;1.50;;;24.70;93.00;;;;;;4978193;28;20324;-73
2022/09/01 08:11:57;;;;;;;7.03;1.50;;;24.80;92.40;;;;;;4940058;28;210791;-73
2022/09/01 08:14:23;;;;;;;6.50;1.65;;;24.90;91.90;;;;;;4975482;28;21269;-72
2022/09/01 08:16:49;;;;;;;6.90;1.50;;;25.10;91.60;;;;;;4930057;28;206841;-73
2022/09/01 08:19:17;;;;;;;6.57;1.50;;;25.20;91.70;;;;;;4980716;28;20069;-73
2022/09/01 08:21:43;;;;;;;6.78;1.27;;;25.40;90.90;;;;;;4953740;28;212355;-73
2022/09/01 08:24:09;;;;;;;5.40;1.30;;;25.70;90.90;;;;;;4983575;28;20435;-74
2022/09/01 08:26:36;;;;;;;7.40;1.40;;;26.10;90.40;;;;;;4937532;28;212893;-74
2022/09/01 08:29:02;;;;;;;7.75;1.27;;;26.20;89.60;;;;;;4983190;28;20050;-73
2022/09/01 08:31:28;;;;;;;6.38;1.20;;;26.30;88.00;;;;;;4930006;28;205534;-74
2022/09/01 08:33:54;;;;;;;6.65;1.45;;;26.60;88.80;;;;;;4987173;28;20051;-73
2022/09/01 08:36:21;;;;;;;5.28;1.30;;;26.90;86.90;;;;;;4936731;28;214898;-73
2022/09/01 08:38:47;;;;;;;7.22;1.60;;;27.10;85.50;;;;;;4979301;28;20061;-73
2022/09/01 08:41:31;;;;;;;5.25;1.27;;;27.30;85.00;;;;;;4931890;28;215441;-73
2022/09/01 08:44:20;;;;;;;4.38;1.10;;;27.70;82.60;;;;;;4977310;28;20092;-72
2022/09/01 08:46:52;;;;;;;6.03;1.40;;;28.00;80.20;;;;;;4926814;28;205803;-73
2022/09/01 08:49:22;;;;;;;5.72;1.35;;;28.00;81.00;;;;;;4984457;28;20054;-73
2022/09/01 08:52:19;;;;;;;7.30;1.40;;;28.20;80.40;;;;;;4927009;28;214059;-73
2022/09/01 08:54:59;;;;;;;4.78;1.10;;;28.30;78.70;;;;;;4927790;29;20528;-72
2022/09/01 08:57:40;;;;;;;4.63;1.30;;;28.40;77.60;;;;;;4852084;29;208253;-73
2022/09/01 09:00:11;;;;;;;6.40;1.20;;;28.60;75.90;;;;;;4866212;28;205843;-72
2022/09/01 09:02:39;;;;;;;;;;;28.70;75.50;;;;;;4919760;29;20472;-73
2022/09/01 09:05:23;;;;;;;5.07;1.05;;;28.70;74.90;;;;;;4880456;28;212094;-73
2022/09/01 09:07:57;;;;;;;5.85;1.30;;;28.90;75.40;;;;;;4915288;29;20071;-72
2022/09/01 09:10:31;;;;;;;5.45;1.10;;;29.10;73.50;;;;;;4884322;28;203417;-73
2022/09/01 09:13:24;;;;;;;4.88;1.20;;;29.20;72.50;;;;;;4928934;29;20066;-73
2022/09/01 09:15:59;;;;;;;6.47;1.25;;;29.50;71.30;;;;;;4880397;28;185163;-72
2022/09/01 09:18:48;;;;;;;4.50;1.10;;;29.60;71.70;;;;;;4924912;29;20052;-72
2022/09/01 09:21:24;;;;;;;5.78;1.30;;;29.80;70.20;;;;;;4884749;28;208714;-72
2022/09/01 09:24:04;;;;;;;5.15;1.30;;;30.00;68.70;;;;;;4919417;29;20051;-72
2022/09/01 09:26:31;;;;;;;4.72;1.00;;;29.90;68.20;;;;;;4880168;28;213681;-73
2022/09/01 09:28:57;;;;;;;5.78;1.13;;;29.80;67.40;;;;;;4910858;29;20230;-73
2022/09/01 09:31:28;;;;;;;6.05;1.35;;;30.00;67.20;;;;;;4903297;28;212930;-73
2022/09/01 09:33:56;;;;;;;8.65;1.33;;;30.20;66.30;;;;;;4986781;28;20069;-72
2022/09/01 09:36:45;;;;;;;4.43;1.05;;;30.30;66.10;;;;;;4929815;28;221784;-71
2022/09/01 09:39:15;;;;;;;5.60;1.02;;;30.50;63.90;;;;;;4982853;28;20073;-71
2022/09/01 09:41:43;;;;;;;6.93;1.20;;;30.60;64.80;;;;;;4934720;28;154610;-73
2022/09/01 09:44:28;;;;;;;3.75;0.95;;;30.70;64.20;;;;;;4978299;28;20050;-73
2022/09/01 09:46:56;;;;;;;6.55;1.10;;;30.90;62.90;;;;;;4953887;28;224583;-73
2022/09/01 09:49:25;;;;;;;3.45;0.90;;;31.00;62.80;;;;;;4978404;28;20054;-73
2022/09/01 09:52:09;;;;;;;5.60;1.30;;;31.20;62.10;;;;;;4947387;28;213142;-73
2022/09/01 09:54:40;;;;;;;6.25;1.05;;;31.40;60.80;;;;;;4985239;28;20050;-74
2022/09/01 09:57:12;;;;;;;4.97;1.20;;;31.40;60.70;;;;;;4914643;28;208761;-74
2022/09/01 10:00:07;;;;;;;4.53;0.90;;;31.50;60.20;;;;;;4964855;28;20065;-74
2022/09/01 10:02:36;;;;;;;6.40;0.90;;;31.80;59.00;;;;;;4887615;28;206302;-74
2022/09/01 10:05:42;;;;;;;5.88;0.88;;;32.00;58.80;;;;;;4917012;28;219406;-74
2022/09/01 10:08:36;;;;;;;6.78;1.00;;;31.80;55.50;;;;;;4904359;29;20405;-75
2022/09/01 10:11:05;;;;;;;6.43;0.90;;;31.50;56.80;;;;;;4881129;29;210206;-75
2022/09/01 10:13:35;;;;;;;5.43;1.00;;;31.70;57.00;;;;;;4907374;29;20146;-74
2022/09/01 10:16:08;;;;;;;5.07;1.05;;;31.90;57.10;;;;;;4873666;29;207654;-74
2022/09/01 10:18:39;;;;;;;7.90;1.20;;;32.30;56.20;;;;;;4903432;29;20051;-74
2022/09/01 10:21:25;;;;;;;4.40;0.95;;;32.20;53.40;;;;;;4849652;29;212794;-74
2022/09/01 10:23:52;;;;;;;4.20;0.70;;;32.00;52.90;;;;;;4902474;29;20066;-74
2022/09/01 10:26:42;;;;;;;3.67;0.80;;;32.00;53.50;;;;;;4865167;29;210035;-74
2022/09/01 10:29:20;;;;;;;5.93;1.00;;;31.90;52.30;;;;;;4905293;29;20052;-73
2022/09/01 10:31:46;;;;;;;3.42;0.75;;;32.00;52.00;;;;;;4861688;29;211265;-74
2022/09/01 10:34:18;;;;;;;4.53;0.80;;;32.30;52.00;;;;;;4902232;29;20133;-73
2022/09/01 10:36:46;;;;;;;3.95;0.82;;;32.70;51.10;;;;;;4862584;29;212037;-73
2022/09/01 10:39:16;;;;;;;4.68;1.00;;;32.90;50.50;;;;;;4920451;29;20797;-73
2022/09/01 10:41:42;;;;;;;5.28;0.85;;;32.90;50.60;;;;;;4877344;29;206243;-74
2022/09/01 10:44:20;;;;;;;3.15;0.90;;;32.70;50.70;;;;;;4923163;28;20063;-73
2022/09/01 10:46:47;;;;;;;4.30;0.90;;;32.80;50.40;;;;;;4920479;28;209307;-73
2022/09/01 10:49:27;;;;;;;3.85;0.80;;;33.10;50.60;;;;;;4958706;28;20062;-72
2022/09/01 10:51:56;;;;;;;5.10;0.88;;;33.20;48.20;;;;;;4895971;28;209692;-74
2022/09/01 10:54:38;;;;;;;6.10;1.00;;;33.40;49.10;;;;;;4956719;28;20109;-73
2022/09/01 10:57:08;;;;;;;5.85;0.90;;;33.70;48.30;;;;;;4909188;28;193692;-74
2022/09/01 10:59:34;;;;;;;3.70;0.70;;;33.80;48.30;;;;;;4954807;28;20046;-74
2022/09/01 11:02:07;;;;;;;3.47;0.80;;;34.20;47.00;;;;;;4932452;28;213790;-74
2022/09/01 11:04:36;;;;;;;4.63;0.90;;;34.30;46.70;;;;;;4951977;28;20039;-74
2022/09/01 11:07:05;;;;;;;4.63;0.80;;;34.50;46.40;;;;;;4913535;28;205184;-74
2022/09/01 11:09:33;;;;;;;3.90;0.77;;;34.60;46.40;;;;;;4966074;28;20051;-72
2022/09/01 11:12:14;;;;;;;4.93;0.80;;;34.50;44.70;;;;;;4928502;28;209005;-73
2022/09/01 11:14:54;;;;;;;6.28;0.80;;;34.60;44.70;;;;;;4978809;28;20054;-72
2022/09/01 11:17:27;;;;;;;3.83;0.80;;;34.70;44.30;;;;;;4940223;28;193237;-74
2022/09/01 11:20:06;;;;;;;4.47;0.80;;;34.70;45.20;;;;;;4969665;28;251381;-74
2022/09/01 11:22:40;;;;;;;2.30;0.75;;;35.00;44.80;;;;;;4948629;28;206613;-73
2022/09/01 11:25:09;;;;;;;3.13;0.80;;;34.90;44.50;;;;;;4934522;28;217609;-74
2022/09/01 11:27:47;;;;;;;4.38;0.80;;;34.50;43.80;;;;;;4976418;28;20062;-73
2022/09/01 11:30:30;;;;;;;3.85;0.90;;;34.80;43.90;;;;;;4932938;28;208585;-74
2022/09/01 11:33:12;;;;;;;5.20;1.05;;;34.70;43.10;;;;;;4964206;28;20057;-72
2022/09/01 11:35:39;;;;;;;2.80;0.90;;;34.40;43.30;;;;;;4952938;28;201087;-76
2022/09/01 11:38:07;;;;;;;3.78;0.90;;;34.10;43.50;;;;;;4982087;28;20077;-76
2022/09/01 11:40:35;;;;;;;4.55;0.80;;;34.20;43.90;;;;;;4947192;28;213332;-76
2022/09/01 11:43:08;;;;;;;4.97;0.98;;;34.60;44.00;;;;;;4984391;28;20066;-77
2022/09/01 11:45:49;;;;;;;4.45;0.90;;;35.00;43.20;;;;;;4967909;28;209609;-76
2022/09/01 11:48:16;;;;;;;3.83;0.90;;;35.20;43.00;;;;;;4984578;28;20061;-76
2022/09/01 11:50:42;;;;;;;2.42;0.65;;;35.20;42.90;;;;;;4955608;28;213360;-76
2022/09/01 11:53:13;;;;;;;6.40;0.90;;;35.10;42.70;;;;;;4984022;28;20061;-75
2022/09/01 11:55:47;;;;;;;2.78;0.65;;;35.00;42.80;;;;;;4937036;28;204132;-76
2022/09/01 11:58:30;;;;;;;3.58;0.80;;;34.70;42.30;;;;;;4968141;28;20037;-76
2022/09/01 12:01:10;;;;;;;5.18;0.80;;;33.70;41.70;;;;;;4951885;28;217370;-76
2022/09/01 12:03:36;;;;;;;4.93;0.80;;;32.50;42.60;;;;;;4978440;28;20058;-76
2022/09/01 12:06:05;;;;;;;3.70;0.82;;;32.50;43.70;;;;;;4938128;28;206643;-75
2022/09/01 12:08:35;;;;;;;6.80;0.90;;;32.70;43.50;;;;;;4983353;28;20050;-75
2022/09/01 12:11:04;;;;;;;4.07;0.90;;;33.30;43.50;;;;;;4927234;28;207551;-75
2022/09/01 12:13:31;;;;;;;4.10;0.90;;;33.70;43.50;;;;;;4977741;28;20054;-75
2022/09/01 12:16:00;;;;;;;5.28;0.90;;;34.00;43.50;;;;;;4932038;28;231098;-75
2022/09/01 12:18:34;;;;;;;5.60;0.90;;;34.30;43.10;;;;;;4977651;28;20061;-77
2022/09/01 12:21:03;;;;;;;4.47;0.75;;;34.60;42.80;;;;;;4942354;28;207435;-75
2022/09/01 12:23:41;;;;;;;2.90;0.73;;;35.00;43.20;;;;;;4985853;28;20066;-76
2022/09/01 12:26:10;;;;;;;2.72;0.75;;;34.30;42.10;;;;;;4945231;28;209375;-76
2022/09/01 12:28:40;;;;;;;4.60;0.70;;;34.10;42.40;;;;;;4980444;28;20057;-77
2022/09/01 12:31:14;;;;;;;;;;;34.30;42.50;;;;;;4927653;28;221366;-77
2022/09/01 12:33:42;;;;;;;4.88;0.90;;;34.70;41.40;;;;;;4981242;28;19918;-76
2022/09/01 12:36:33;;;;;;;2.35;0.70;;;34.80;42.10;;;;;;4942519;28;223145;-75
2022/09/01 12:39:20;;;;;;;5.07;0.80;;;35.10;40.40;;;;;;4986292;28;20049;-75
2022/09/01 12:42:31;;;;;;;5.57;0.95;;;34.90;40.90;;;;;;4954078;28;211619;-75
2022/09/01 12:45:08;;;;;;;4.38;0.88;;;35.10;41.40;;;;;;4943124;28;211250;-76
2022/09/01 12:47:34;;;;;;;4.50;0.77;;;35.30;41.60;;;;;;4992355;28;20508;-76
2022/09/01 12:50:27;;;;;;;4.07;0.70;;;35.50;41.40;;;;;;4939644;28;212890;-76
2022/09/01 12:52:57;;;;;;;3.58;0.80;;;35.70;41.10;;;;;;4984648;28;20058;-77
2022/09/01 12:55:27;;;;;;;3.42;0.80;;;35.90;41.00;;;;;;4940065;28;203535;-76
2022/09/01 12:58:04;;;;;;;6.05;0.90;;;36.10;41.20;;;;;;4991910;28;20048;-76
2022/09/01 13:00:33;;;;;;;3.20;0.80;;;35.80;40.40;;;;;;4939412;28;207192;-76
2022/09/01 13:03:10;;;;;;;4.82;1.00;;;34.90;40.80;;;;;;4990759;28;20054;-76
2022/09/01 13:05:41;;;;;;;3.80;0.82;;;33.90;40.60;;;;;;4942338;28;206890;-76